Terminal Aerodrome Forecast
Issued by NWS Boston, MA

Home | Current Version | Previous Version | Text Only | Print | Product List | Glossary On
Versions: 1 2 3 4 5 6 7 8 9 10 11 12 13 14 15 16 17 18 19 20 21 22 23 24 25 26 27 28 29
000
FTUS41 KBOX 282039 AAA
TAFORH
TAF AMD
KORH 282039Z 2821/2918 24011G19KT P6SM BKN050
     FM282130 24015KT 3SM TSRA OVC035CB
     FM282230 27008KT P6SM BKN090
     FM290100 28007KT P6SM SCT250
     FM290600 32006KT P6SM FEW250
     FM291500 09004KT P6SM SCT250=

USA.gov is the U.S. government's official web portal to all federal, state and local government web resources and services.